General Mariano Matamoros Airport
MMCB : now visible

Airfield :











YOU CAN JOIN US ON...

 
LOGIN :

Register | Disclaimer

   EN    FR    IT 

 









Legend :    VFR   Marginal VFR   IFR   Intensive IFR   Very Intensive IFR
Visi :
Ceiling :
>= 8 km
>= 3000ft
5 to 8 km
1000 to 3000 ft
1500m to 5 km
500 to 1000 ft
800 to 1500m
200 to 500 ft
< 800m
< 200 ft
Symbols :   Thunderstorms  Fog  Heavy snow  Heavy precipitations  Wind > 20 kt






- Airport Elevation : 4277 ft
- IATA code : CVJ


MMCB - General Mariano Matamoros

CURRENT METAR :
  • 232257Z RTD 16007KT 10SM SCT015CB BKN100 26/14 A2997 RMK 8/960 RA N

EXPIRED METARs :
  • 232155Z 00000KT 10SM SCT015CB SCT100 26/15 A2996 RMK 8/960
  • 232046Z 22006KT 10SM SCT015TCU 27/15 A2999 RMK 8/200 DSNT CB NE TS NE

TAF TAF MMCB
Valid from the 23 at 18:00 until the 24 at 18:00 UTC


231618Z 2318/2418 18008KT P6SM SCT020 BKN080
BECMG 2319/2320 BKN020 BKN080
FM232200 20008KT 6SM -RA BKN015 OVC080
TEMPO 2323/2403 4SM RA BKN015 OVC070
FM240600 00000KT 6SM HZ BKN010 OVC070
TEMPO 2410/2414 3SM BR HZ
FM241500 16006KT P6SM SCT015 BKN070



MET'MAP, your aeronautical weather chart ! - Copyright ORBIFLY December 2007 - Disclaimer

ORBIFLY MET'MAP TEAM :

Programming & Development : Alexandra Zaïnal
Concept & Development : Baudouin d'Aumeries
Co-Development & Prog : Marc-Olivier Méhu
Technical & hardware support : Manuel Goepfert

Contact : metmap@orbifly.com




SOURCES & CREDITS :

   NOAA       Earth
Advisory